sensor_id;sensor_type;location;lat;lon;timestamp;P1;durP1;ratioP1;P2;durP2;ratioP2
31336;SDS011;22846;42.654;23.314;2023-04-23T00:01:17;8.13;;;6.40;;
31336;SDS011;22846;42.654;23.314;2023-04-23T00:03:43;8.27;;;6.22;;
31336;SDS011;22846;42.654;23.314;2023-04-23T00:06:09;8.63;;;6.78;;
31336;SDS011;22846;42.654;23.314;2023-04-23T00:08:38;8.73;;;5.75;;
31336;SDS011;22846;42.654;23.314;2023-04-23T00:11:04;7.93;;;5.80;;
31336;SDS011;22846;42.654;23.314;2023-04-23T00:13:30;6.65;;;5.32;;
31336;SDS011;22846;42.654;23.314;2023-04-23T00:15:56;8.02;;;5.78;;
31336;SDS011;22846;42.654;23.314;2023-04-23T00:18:22;8.05;;;5.78;;
31336;SDS011;22846;42.654;23.314;2023-04-23T00:20:47;7.32;;;5.78;;
31336;SDS011;22846;42.654;23.314;2023-04-23T00:23:13;7.38;;;5.65;;
31336;SDS011;22846;42.654;23.314;2023-04-23T00:25:38;6.25;;;4.95;;
31336;SDS011;22846;42.654;23.314;2023-04-23T00:28:04;7.65;;;5.05;;
31336;SDS011;22846;42.654;23.314;2023-04-23T00:30:29;7.32;;;5.30;;
31336;SDS011;22846;42.654;23.314;2023-04-23T00:32:54;8.23;;;5.68;;
31336;SDS011;22846;42.654;23.314;2023-04-23T00:35:20;5.90;;;4.90;;
31336;SDS011;22846;42.654;23.314;2023-04-23T00:37:45;6.60;;;4.53;;
31336;SDS011;22846;42.654;23.314;2023-04-23T00:40:11;6.15;;;5.15;;
31336;SDS011;22846;42.654;23.314;2023-04-23T00:42:38;6.10;;;4.88;;
31336;SDS011;22846;42.654;23.314;2023-04-23T00:45:07;6.38;;;4.38;;
31336;SDS011;22846;42.654;23.314;2023-04-23T00:47:33;5.63;;;4.50;;
31336;SDS011;22846;42.654;23.314;2023-04-23T00:49:59;4.75;;;4.20;;
31336;SDS011;22846;42.654;23.314;2023-04-23T00:52:25;5.47;;;4.35;;
31336;SDS011;22846;42.654;23.314;2023-04-23T00:54:53;5.38;;;4.25;;
31336;SDS011;22846;42.654;23.314;2023-04-23T00:57:18;6.57;;;4.65;;
31336;SDS011;22846;42.654;23.314;2023-04-23T00:59:44;6.63;;;4.45;;
31336;SDS011;22846;42.654;23.314;2023-04-23T01:02:10;5.05;;;4.47;;
31336;SDS011;22846;42.654;23.314;2023-04-23T01:04:36;5.32;;;4.15;;
31336;SDS011;22846;42.654;23.314;2023-04-23T01:07:02;4.70;;;4.10;;
31336;SDS011;22846;42.654;23.314;2023-04-23T01:09:28;5.78;;;4.43;;
31336;SDS011;22846;42.654;23.314;2023-04-23T01:11:53;6.32;;;3.95;;
31336;SDS011;22846;42.654;23.314;2023-04-23T01:14:19;5.15;;;4.05;;
31336;SDS011;22846;42.654;23.314;2023-04-23T01:16:45;4.53;;;3.90;;
31336;SDS011;22846;42.654;23.314;2023-04-23T01:19:11;4.72;;;3.83;;
31336;SDS011;22846;42.654;23.314;2023-04-23T01:21:37;5.20;;;3.95;;
31336;SDS011;22846;42.654;23.314;2023-04-23T01:24:05;5.13;;;3.90;;
31336;SDS011;22846;42.654;23.314;2023-04-23T01:26:32;4.05;;;3.58;;
31336;SDS011;22846;42.654;23.314;2023-04-23T01:28:58;4.93;;;3.67;;
31336;SDS011;22846;42.654;23.314;2023-04-23T01:31:24;4.13;;;3.53;;
31336;SDS011;22846;42.654;23.314;2023-04-23T01:33:50;4.13;;;3.53;;
31336;SDS011;22846;42.654;23.314;2023-04-23T01:36:18;4.47;;;3.50;;
31336;SDS011;22846;42.654;23.314;2023-04-23T01:38:43;4.32;;;3.50;;
31336;SDS011;22846;42.654;23.314;2023-04-23T01:41:09;3.42;;;3.08;;
31336;SDS011;22846;42.654;23.314;2023-04-23T01:43:34;4.30;;;3.65;;
31336;SDS011;22846;42.654;23.314;2023-04-23T01:46:01;4.95;;;3.58;;
31336;SDS011;22846;42.654;23.314;2023-04-23T01:48:26;4.25;;;3.35;;
31336;SDS011;22846;42.654;23.314;2023-04-23T01:50:52;4.20;;;3.03;;
31336;SDS011;22846;42.654;23.314;2023-04-23T01:53:18;3.58;;;3.08;;
31336;SDS011;22846;42.654;23.314;2023-04-23T01:55:46;3.63;;;3.10;;
31336;SDS011;22846;42.654;23.314;2023-04-23T01:58:13;3.95;;;3.20;;
31336;SDS011;22846;42.654;23.314;2023-04-23T02:00:38;4.68;;;3.08;;
31336;SDS011;22846;42.654;23.314;2023-04-23T02:03:04;3.30;;;2.90;;
31336;SDS011;22846;42.654;23.314;2023-04-23T02:05:29;3.97;;;3.33;;
31336;SDS011;22846;42.654;23.314;2023-04-23T02:07:59;3.33;;;2.88;;
31336;SDS011;22846;42.654;23.314;2023-04-23T02:10:25;3.22;;;2.80;;
31336;SDS011;22846;42.654;23.314;2023-04-23T02:12:51;3.13;;;2.83;;
31336;SDS011;22846;42.654;23.314;2023-04-23T02:15:16;4.25;;;2.58;;
31336;SDS011;22846;42.654;23.314;2023-04-23T02:17:42;3.38;;;2.75;;
31336;SDS011;22846;42.654;23.314;2023-04-23T02:20:07;3.75;;;3.05;;
31336;SDS011;22846;42.654;23.314;2023-04-23T02:22:35;3.30;;;2.63;;
31336;SDS011;22846;42.654;23.314;2023-04-23T02:25:01;3.00;;;2.55;;
31336;SDS011;22846;42.654;23.314;2023-04-23T02:27:27;2.70;;;2.45;;
31336;SDS011;22846;42.654;23.314;2023-04-23T02:29:53;3.55;;;2.65;;
31336;SDS011;22846;42.654;23.314;2023-04-23T02:32:18;3.45;;;2.47;;
31336;SDS011;22846;42.654;23.314;2023-04-23T02:34:44;2.88;;;2.50;;
31336;SDS011;22846;42.654;23.314;2023-04-23T02:37:10;2.75;;;2.40;;
31336;SDS011;22846;42.654;23.314;2023-04-23T02:39:35;2.95;;;2.60;;
31336;SDS011;22846;42.654;23.314;2023-04-23T02:42:02;3.30;;;2.60;;
31336;SDS011;22846;42.654;23.314;2023-04-23T02:44:28;2.92;;;2.60;;
31336;SDS011;22846;42.654;23.314;2023-04-23T02:46:53;5.35;;;2.42;;
31336;SDS011;22846;42.654;23.314;2023-04-23T02:49:20;3.20;;;2.40;;
31336;SDS011;22846;42.654;23.314;2023-04-23T02:51:45;2.65;;;2.40;;
31336;SDS011;22846;42.654;23.314;2023-04-23T02:54:11;3.25;;;2.45;;
31336;SDS011;22846;42.654;23.314;2023-04-23T02:56:37;2.90;;;2.35;;
31336;SDS011;22846;42.654;23.314;2023-04-23T02:59:03;2.20;;;2.00;;
31336;SDS011;22846;42.654;23.314;2023-04-23T03:01:28;3.78;;;2.45;;
31336;SDS011;22846;42.654;23.314;2023-04-23T03:03:54;3.97;;;2.50;;
31336;SDS011;22846;42.654;23.314;2023-04-23T03:06:19;3.10;;;2.33;;
31336;SDS011;22846;42.654;23.314;2023-04-23T03:08:45;2.67;;;2.38;;
31336;SDS011;22846;42.654;23.314;2023-04-23T03:11:10;2.40;;;2.20;;
31336;SDS011;22846;42.654;23.314;2023-04-23T03:13:36;2.63;;;2.38;;
31336;SDS011;22846;42.654;23.314;2023-04-23T03:16:02;3.00;;;2.42;;
31336;SDS011;22846;42.654;23.314;2023-04-23T03:18:28;2.63;;;2.35;;
31336;SDS011;22846;42.654;23.314;2023-04-23T03:20:53;3.20;;;2.42;;
31336;SDS011;22846;42.654;23.314;2023-04-23T03:23:19;2.70;;;2.10;;
31336;SDS011;22846;42.654;23.314;2023-04-23T03:25:44;2.63;;;2.10;;
31336;SDS011;22846;42.654;23.314;2023-04-23T03:28:10;2.00;;;1.80;;
31336;SDS011;22846;42.654;23.314;2023-04-23T03:30:35;2.20;;;1.98;;
31336;SDS011;22846;42.654;23.314;2023-04-23T03:33:01;2.75;;;2.20;;
31336;SDS011;22846;42.654;23.314;2023-04-23T03:35:27;2.55;;;2.22;;
31336;SDS011;22846;42.654;23.314;2023-04-23T03:37:52;3.03;;;2.30;;
31336;SDS011;22846;42.654;23.314;2023-04-23T03:40:18;2.67;;;1.90;;
31336;SDS011;22846;42.654;23.314;2023-04-23T03:42:44;1.95;;;1.70;;
31336;SDS011;22846;42.654;23.314;2023-04-23T03:45:10;2.13;;;1.92;;
31336;SDS011;22846;42.654;23.314;2023-04-23T03:47:37;2.55;;;2.22;;
31336;SDS011;22846;42.654;23.314;2023-04-23T03:50:03;2.70;;;1.90;;
31336;SDS011;22846;42.654;23.314;2023-04-23T03:52:28;2.00;;;1.67;;
31336;SDS011;22846;42.654;23.314;2023-04-23T03:54:54;2.25;;;1.90;;
31336;SDS011;22846;42.654;23.314;2023-04-23T03:57:19;2.17;;;1.90;;
31336;SDS011;22846;42.654;23.314;2023-04-23T03:59:45;1.95;;;1.70;;
31336;SDS011;22846;42.654;23.314;2023-04-23T04:02:11;2.05;;;1.85;;
31336;SDS011;22846;42.654;23.314;2023-04-23T04:04:36;2.38;;;1.92;;
31336;SDS011;22846;42.654;23.314;2023-04-23T04:07:01;2.95;;;2.15;;
31336;SDS011;22846;42.654;23.314;2023-04-23T04:09:27;2.00;;;1.80;;
31336;SDS011;22846;42.654;23.314;2023-04-23T04:11:53;2.28;;;1.88;;
31336;SDS011;22846;42.654;23.314;2023-04-23T04:14:19;2.15;;;1.95;;
31336;SDS011;22846;42.654;23.314;2023-04-23T04:16:45;1.70;;;1.58;;
31336;SDS011;22846;42.654;23.314;2023-04-23T04:19:10;1.90;;;1.50;;
31336;SDS011;22846;42.654;23.314;2023-04-23T04:21:36;2.25;;;2.00;;
31336;SDS011;22846;42.654;23.314;2023-04-23T04:24:01;2.45;;;1.90;;
31336;SDS011;22846;42.654;23.314;2023-04-23T04:26:28;2.88;;;1.90;;
31336;SDS011;22846;42.654;23.314;2023-04-23T04:28:56;2.13;;;1.80;;
31336;SDS011;22846;42.654;23.314;2023-04-23T04:31:26;2.05;;;1.70;;
31336;SDS011;22846;42.654;23.314;2023-04-23T04:33:55;2.38;;;2.00;;
31336;SDS011;22846;42.654;23.314;2023-04-23T04:36:21;2.10;;;1.90;;
31336;SDS011;22846;42.654;23.314;2023-04-23T04:38:49;2.40;;;1.83;;
31336;SDS011;22846;42.654;23.314;2023-04-23T04:41:15;1.85;;;1.70;;
31336;SDS011;22846;42.654;23.314;2023-04-23T04:43:42;1.77;;;1.52;;
31336;SDS011;22846;42.654;23.314;2023-04-23T04:46:07;1.98;;;1.70;;
31336;SDS011;22846;42.654;23.314;2023-04-23T04:48:35;1.98;;;1.77;;
31336;SDS011;22846;42.654;23.314;2023-04-23T04:51:01;2.85;;;1.90;;
31336;SDS011;22846;42.654;23.314;2023-04-23T04:53:26;2.80;;;2.00;;
31336;SDS011;22846;42.654;23.314;2023-04-23T04:55:51;3.03;;;2.00;;
31336;SDS011;22846;42.654;23.314;2023-04-23T04:58:17;3.10;;;2.00;;
31336;SDS011;22846;42.654;23.314;2023-04-23T05:00:42;3.70;;;2.30;;
31336;SDS011;22846;42.654;23.314;2023-04-23T05:03:08;3.00;;;2.38;;
31336;SDS011;22846;42.654;23.314;2023-04-23T05:05:34;3.08;;;2.35;;
31336;SDS011;22846;42.654;23.314;2023-04-23T05:07:59;2.63;;;2.08;;
31336;SDS011;22846;42.654;23.314;2023-04-23T05:10:26;2.80;;;2.33;;
31336;SDS011;22846;42.654;23.314;2023-04-23T05:12:53;2.40;;;2.20;;
31336;SDS011;22846;42.654;23.314;2023-04-23T05:15:20;2.17;;;1.80;;
31336;SDS011;22846;42.654;23.314;2023-04-23T05:17:45;2.72;;;2.20;;
31336;SDS011;22846;42.654;23.314;2023-04-23T05:20:11;3.08;;;2.10;;
31336;SDS011;22846;42.654;23.314;2023-04-23T05:22:37;2.58;;;2.00;;
31336;SDS011;22846;42.654;23.314;2023-04-23T05:25:03;2.80;;;2.10;;
31336;SDS011;22846;42.654;23.314;2023-04-23T05:27:30;2.72;;;2.53;;
31336;SDS011;22846;42.654;23.314;2023-04-23T05:29:55;2.63;;;2.38;;
31336;SDS011;22846;42.654;23.314;2023-04-23T05:32:21;3.05;;;2.40;;
31336;SDS011;22846;42.654;23.314;2023-04-23T05:34:46;3.42;;;2.42;;
31336;SDS011;22846;42.654;23.314;2023-04-23T05:37:11;4.28;;;2.47;;
31336;SDS011;22846;42.654;23.314;2023-04-23T05:39:37;2.10;;;1.90;;
31336;SDS011;22846;42.654;23.314;2023-04-23T05:42:02;3.45;;;2.45;;
31336;SDS011;22846;42.654;23.314;2023-04-23T05:44:28;3.58;;;2.25;;
31336;SDS011;22846;42.654;23.314;2023-04-23T05:46:54;2.33;;;2.13;;
31336;SDS011;22846;42.654;23.314;2023-04-23T05:49:19;2.40;;;1.75;;
31336;SDS011;22846;42.654;23.314;2023-04-23T05:51:45;2.10;;;1.83;;
31336;SDS011;22846;42.654;23.314;2023-04-23T05:54:10;2.08;;;1.88;;
31336;SDS011;22846;42.654;23.314;2023-04-23T05:56:35;2.80;;;2.50;;
31336;SDS011;22846;42.654;23.314;2023-04-23T05:59:01;2.92;;;2.40;;
31336;SDS011;22846;42.654;23.314;2023-04-23T06:01:26;2.70;;;2.05;;
31336;SDS011;22846;42.654;23.314;2023-04-23T06:03:52;2.15;;;1.95;;
31336;SDS011;22846;42.654;23.314;2023-04-23T06:06:18;2.25;;;2.05;;
31336;SDS011;22846;42.654;23.314;2023-04-23T06:08:43;3.25;;;2.05;;
31336;SDS011;22846;42.654;23.314;2023-04-23T06:11:08;2.88;;;1.92;;
31336;SDS011;22846;42.654;23.314;2023-04-23T06:13:34;2.75;;;1.92;;
31336;SDS011;22846;42.654;23.314;2023-04-23T06:16:04;2.50;;;1.80;;
31336;SDS011;22846;42.654;23.314;2023-04-23T06:18:31;4.13;;;2.20;;
31336;SDS011;22846;42.654;23.314;2023-04-23T06:20:57;4.93;;;2.20;;
31336;SDS011;22846;42.654;23.314;2023-04-23T06:23:22;6.38;;;2.65;;
31336;SDS011;22846;42.654;23.314;2023-04-23T06:25:48;3.42;;;2.05;;
31336;SDS011;22846;42.654;23.314;2023-04-23T06:28:13;3.25;;;1.80;;
31336;SDS011;22846;42.654;23.314;2023-04-23T06:30:40;3.95;;;1.90;;
31336;SDS011;22846;42.654;23.314;2023-04-23T06:33:05;4.10;;;1.50;;
31336;SDS011;22846;42.654;23.314;2023-04-23T06:35:33;3.83;;;2.05;;
31336;SDS011;22846;42.654;23.314;2023-04-23T06:37:58;3.40;;;1.52;;
31336;SDS011;22846;42.654;23.314;2023-04-23T06:40:24;3.28;;;1.60;;
31336;SDS011;22846;42.654;23.314;2023-04-23T06:42:49;2.90;;;1.55;;
31336;SDS011;22846;42.654;23.314;2023-04-23T06:45:15;4.43;;;1.90;;
31336;SDS011;22846;42.654;23.314;2023-04-23T06:47:40;3.15;;;1.70;;
31336;SDS011;22846;42.654;23.314;2023-04-23T06:50:06;2.35;;;1.60;;
31336;SDS011;22846;42.654;23.314;2023-04-23T06:52:32;1.98;;;1.77;;
31336;SDS011;22846;42.654;23.314;2023-04-23T06:54:58;1.92;;;1.40;;
31336;SDS011;22846;42.654;23.314;2023-04-23T06:57:23;1.88;;;1.50;;
31336;SDS011;22846;42.654;23.314;2023-04-23T06:59:48;1.58;;;1.48;;
31336;SDS011;22846;42.654;23.314;2023-04-23T07:02:15;1.95;;;1.70;;
31336;SDS011;22846;42.654;23.314;2023-04-23T07:04:40;2.25;;;1.70;;
31336;SDS011;22846;42.654;23.314;2023-04-23T07:07:05;2.35;;;1.58;;
31336;SDS011;22846;42.654;23.314;2023-04-23T07:09:31;2.47;;;1.67;;
31336;SDS011;22846;42.654;23.314;2023-04-23T07:11:57;3.55;;;1.63;;
31336;SDS011;22846;42.654;23.314;2023-04-23T07:14:22;4.65;;;1.80;;
31336;SDS011;22846;42.654;23.314;2023-04-23T07:16:47;4.03;;;1.50;;
31336;SDS011;22846;42.654;23.314;2023-04-23T07:19:13;4.13;;;1.75;;
31336;SDS011;22846;42.654;23.314;2023-04-23T07:21:38;1.58;;;1.48;;
31336;SDS011;22846;42.654;23.314;2023-04-23T07:24:04;2.55;;;1.80;;
31336;SDS011;22846;42.654;23.314;2023-04-23T07:26:32;3.55;;;1.45;;
31336;SDS011;22846;42.654;23.314;2023-04-23T07:28:59;2.60;;;1.52;;
31336;SDS011;22846;42.654;23.314;2023-04-23T07:31:25;1.92;;;1.73;;
31336;SDS011;22846;42.654;23.314;2023-04-23T07:33:51;3.00;;;1.52;;
31336;SDS011;22846;42.654;23.314;2023-04-23T07:36:16;6.97;;;2.08;;
31336;SDS011;22846;42.654;23.314;2023-04-23T07:38:42;5.05;;;1.85;;
31336;SDS011;22846;42.654;23.314;2023-04-23T07:41:07;3.25;;;1.90;;
31336;SDS011;22846;42.654;23.314;2023-04-23T07:43:32;3.17;;;1.98;;
31336;SDS011;22846;42.654;23.314;2023-04-23T07:45:58;2.85;;;2.00;;
31336;SDS011;22846;42.654;23.314;2023-04-23T07:48:23;5.32;;;1.90;;
31336;SDS011;22846;42.654;23.314;2023-04-23T07:50:49;9.93;;;4.22;;
31336;SDS011;22846;42.654;23.314;2023-04-23T07:53:15;14.30;;;4.65;;
31336;SDS011;22846;42.654;23.314;2023-04-23T07:55:42;6.53;;;2.90;;
31336;SDS011;22846;42.654;23.314;2023-04-23T07:58:07;9.00;;;3.22;;
31336;SDS011;22846;42.654;23.314;2023-04-23T08:00:32;7.25;;;2.92;;
31336;SDS011;22846;42.654;23.314;2023-04-23T08:02:58;13.18;;;3.38;;
31336;SDS011;22846;42.654;23.314;2023-04-23T08:05:23;3.67;;;2.50;;
31336;SDS011;22846;42.654;23.314;2023-04-23T08:07:50;10.50;;;3.42;;
31336;SDS011;22846;42.654;23.314;2023-04-23T08:10:16;6.43;;;2.65;;
31336;SDS011;22846;42.654;23.314;2023-04-23T08:12:41;5.60;;;2.70;;
31336;SDS011;22846;42.654;23.314;2023-04-23T08:15:07;5.35;;;2.70;;
31336;SDS011;22846;42.654;23.314;2023-04-23T08:17:32;8.10;;;4.00;;
31336;SDS011;22846;42.654;23.314;2023-04-23T08:19:59;21.40;;;5.57;;
31336;SDS011;22846;42.654;23.314;2023-04-23T08:22:25;27.77;;;12.35;;
31336;SDS011;22846;42.654;23.314;2023-04-23T08:24:50;19.88;;;7.10;;
31336;SDS011;22846;42.654;23.314;2023-04-23T08:27:15;21.00;;;7.25;;
31336;SDS011;22846;42.654;23.314;2023-04-23T08:29:41;15.75;;;6.50;;
31336;SDS011;22846;42.654;23.314;2023-04-23T08:32:06;19.75;;;6.97;;
31336;SDS011;22846;42.654;23.314;2023-04-23T08:34:32;20.00;;;6.43;;
31336;SDS011;22846;42.654;23.314;2023-04-23T08:36:57;16.23;;;6.15;;
31336;SDS011;22846;42.654;23.314;2023-04-23T08:39:22;14.45;;;5.40;;
31336;SDS011;22846;42.654;23.314;2023-04-23T08:41:53;13.75;;;5.82;;
31336;SDS011;22846;42.654;23.314;2023-04-23T08:44:23;14.13;;;7.15;;
31336;SDS011;22846;42.654;23.314;2023-04-23T08:46:50;47.15;;;31.20;;
31336;SDS011;22846;42.654;23.314;2023-04-23T08:49:17;29.92;;;14.95;;
31336;SDS011;22846;42.654;23.314;2023-04-23T08:51:52;19.17;;;12.25;;
31336;SDS011;22846;42.654;23.314;2023-04-23T08:54:25;19.88;;;11.45;;
31336;SDS011;22846;42.654;23.314;2023-04-23T08:56:52;17.25;;;11.25;;
31336;SDS011;22846;42.654;23.314;2023-04-23T08:59:21;18.02;;;11.07;;
31336;SDS011;22846;42.654;23.314;2023-04-23T09:01:47;18.85;;;10.77;;
31336;SDS011;22846;42.654;23.314;2023-04-23T09:04:13;13.57;;;9.88;;
31336;SDS011;22846;42.654;23.314;2023-04-23T09:06:41;12.73;;;9.15;;
31336;SDS011;22846;42.654;23.314;2023-04-23T09:09:07;18.27;;;9.07;;
31336;SDS011;22846;42.654;23.314;2023-04-23T09:11:34;14.93;;;8.13;;
31336;SDS011;22846;42.654;23.314;2023-04-23T09:14:01;12.82;;;7.65;;
31336;SDS011;22846;42.654;23.314;2023-04-23T09:16:28;9.82;;;7.57;;
31336;SDS011;22846;42.654;23.314;2023-04-23T09:18:53;15.32;;;7.55;;
31336;SDS011;22846;42.654;23.314;2023-04-23T09:21:19;13.60;;;8.20;;
31336;SDS011;22846;42.654;23.314;2023-04-23T09:23:45;10.10;;;7.50;;
31336;SDS011;22846;42.654;23.314;2023-04-23T09:26:17;15.43;;;8.35;;
31336;SDS011;22846;42.654;23.314;2023-04-23T09:28:49;17.67;;;8.27;;
31336;SDS011;22846;42.654;23.314;2023-04-23T09:31:24;14.10;;;7.47;;
31336;SDS011;22846;42.654;23.314;2023-04-23T09:33:52;15.02;;;7.03;;
31336;SDS011;22846;42.654;23.314;2023-04-23T09:36:21;12.35;;;7.05;;
31336;SDS011;22846;42.654;23.314;2023-04-23T09:38:54;11.00;;;7.13;;
31336;SDS011;22846;42.654;23.314;2023-04-23T09:43:46;12.27;;;6.82;;
31336;SDS011;22846;42.654;23.314;2023-04-23T09:46:12;10.85;;;7.30;;
31336;SDS011;22846;42.654;23.314;2023-04-23T09:48:40;11.80;;;7.07;;
31336;SDS011;22846;42.654;23.314;2023-04-23T09:51:07;17.48;;;12.98;;
31336;SDS011;22846;42.654;23.314;2023-04-23T09:53:39;40.65;;;28.00;;
31336;SDS011;22846;42.654;23.314;2023-04-23T09:56:06;19.27;;;11.55;;
31336;SDS011;22846;42.654;23.314;2023-04-23T09:58:32;16.35;;;10.68;;
31336;SDS011;22846;42.654;23.314;2023-04-23T10:01:07;16.48;;;9.82;;
31336;SDS011;22846;42.654;23.314;2023-04-23T10:03:33;14.27;;;9.93;;
31336;SDS011;22846;42.654;23.314;2023-04-23T10:05:58;13.82;;;8.43;;
31336;SDS011;22846;42.654;23.314;2023-04-23T10:08:25;13.75;;;8.13;;
31336;SDS011;22846;42.654;23.314;2023-04-23T10:10:51;16.45;;;8.75;;
31336;SDS011;22846;42.654;23.314;2023-04-23T10:13:16;16.60;;;7.93;;
31336;SDS011;22846;42.654;23.314;2023-04-23T10:15:42;25.92;;;9.50;;
31336;SDS011;22846;42.654;23.314;2023-04-23T10:18:11;15.00;;;8.55;;
31336;SDS011;22846;42.654;23.314;2023-04-23T10:20:39;17.05;;;6.93;;
31336;SDS011;22846;42.654;23.314;2023-04-23T10:23:06;13.48;;;6.97;;
31336;SDS011;22846;42.654;23.314;2023-04-23T10:25:33;11.02;;;6.57;;
31336;SDS011;22846;42.654;23.314;2023-04-23T10:28:00;14.13;;;7.60;;
31336;SDS011;22846;42.654;23.314;2023-04-23T10:30:28;13.98;;;7.30;;
31336;SDS011;22846;42.654;23.314;2023-04-23T10:32:54;15.65;;;6.88;;
31336;SDS011;22846;42.654;23.314;2023-04-23T10:35:21;10.88;;;6.40;;
31336;SDS011;22846;42.654;23.314;2023-04-23T10:37:46;19.05;;;7.50;;
31336;SDS011;22846;42.654;23.314;2023-04-23T10:40:13;18.17;;;6.57;;
31336;SDS011;22846;42.654;23.314;2023-04-23T10:42:43;16.00;;;6.85;;
31336;SDS011;22846;42.654;23.314;2023-04-23T10:47:42;37.42;;;24.10;;
31336;SDS011;22846;42.654;23.314;2023-04-23T10:52:50;20.85;;;11.77;;
31336;SDS011;22846;42.654;23.314;2023-04-23T10:55:19;17.42;;;9.68;;
31336;SDS011;22846;42.654;23.314;2023-04-23T10:57:55;16.30;;;9.13;;
31336;SDS011;22846;42.654;23.314;2023-04-23T11:03:25;13.27;;;7.38;;
31336;SDS011;22846;42.654;23.314;2023-04-23T11:05:53;13.15;;;7.65;;
31336;SDS011;22846;42.654;23.314;2023-04-23T11:08:19;14.10;;;8.38;;
31336;SDS011;22846;42.654;23.314;2023-04-23T11:10:54;24.88;;;13.45;;
31336;SDS011;22846;42.654;23.314;2023-04-23T11:13:21;27.10;;;13.55;;
31336;SDS011;22846;42.654;23.314;2023-04-23T11:15:57;23.15;;;10.55;;
31336;SDS011;22846;42.654;23.314;2023-04-23T11:24:36;9.85;;;6.13;;
31336;SDS011;22846;42.654;23.314;2023-04-23T11:27:10;11.70;;;6.32;;
31336;SDS011;22846;42.654;23.314;2023-04-23T11:29:37;16.95;;;6.95;;
31336;SDS011;22846;42.654;23.314;2023-04-23T11:32:04;9.00;;;5.40;;
31336;SDS011;22846;42.654;23.314;2023-04-23T11:34:34;14.35;;;6.63;;
31336;SDS011;22846;42.654;23.314;2023-04-23T11:37:01;12.20;;;6.05;;
31336;SDS011;22846;42.654;23.314;2023-04-23T11:39:27;13.32;;;7.03;;
31336;SDS011;22846;42.654;23.314;2023-04-23T11:41:52;21.35;;;11.93;;
31336;SDS011;22846;42.654;23.314;2023-04-23T11:44:21;20.05;;;12.85;;
31336;SDS011;22846;42.654;23.314;2023-04-23T11:46:47;19.92;;;11.77;;
31336;SDS011;22846;42.654;23.314;2023-04-23T11:49:14;17.75;;;10.57;;
31336;SDS011;22846;42.654;23.314;2023-04-23T11:51:43;16.67;;;10.43;;
31336;SDS011;22846;42.654;23.314;2023-04-23T11:54:10;21.77;;;10.32;;
31336;SDS011;22846;42.654;23.314;2023-04-23T11:56:37;28.83;;;11.27;;
31336;SDS011;22846;42.654;23.314;2023-04-23T11:59:03;31.25;;;10.85;;
31336;SDS011;22846;42.654;23.314;2023-04-23T12:01:39;17.40;;;10.80;;
31336;SDS011;22846;42.654;23.314;2023-04-23T12:04:09;24.38;;;10.70;;
31336;SDS011;22846;42.654;23.314;2023-04-23T12:06:43;19.48;;;10.55;;
31336;SDS011;22846;42.654;23.314;2023-04-23T12:09:11;15.65;;;10.00;;
31336;SDS011;22846;42.654;23.314;2023-04-23T12:11:42;16.33;;;9.20;;
31336;SDS011;22846;42.654;23.314;2023-04-23T12:14:08;17.35;;;8.93;;
31336;SDS011;22846;42.654;23.314;2023-04-23T12:19:15;17.40;;;9.80;;
31336;SDS011;22846;42.654;23.314;2023-04-23T12:21:48;17.42;;;8.63;;
31336;SDS011;22846;42.654;23.314;2023-04-23T12:24:14;14.02;;;8.30;;
31336;SDS011;22846;42.654;23.314;2023-04-23T12:26:40;22.70;;;8.80;;
31336;SDS011;22846;42.654;23.314;2023-04-23T12:29:07;21.35;;;9.15;;
31336;SDS011;22846;42.654;23.314;2023-04-23T12:31:32;18.42;;;8.60;;
31336;SDS011;22846;42.654;23.314;2023-04-23T12:34:01;16.80;;;8.40;;
31336;SDS011;22846;42.654;23.314;2023-04-23T12:36:28;17.55;;;8.93;;
31336;SDS011;22846;42.654;23.314;2023-04-23T12:41:52;15.98;;;7.88;;
31336;SDS011;22846;42.654;23.314;2023-04-23T12:44:19;15.98;;;8.20;;
31336;SDS011;22846;42.654;23.314;2023-04-23T12:46:47;13.30;;;7.63;;
31336;SDS011;22846;42.654;23.314;2023-04-23T12:49:13;13.98;;;7.80;;
31336;SDS011;22846;42.654;23.314;2023-04-23T12:51:39;14.82;;;7.50;;
31336;SDS011;22846;42.654;23.314;2023-04-23T12:54:04;12.13;;;7.20;;
31336;SDS011;22846;42.654;23.314;2023-04-23T12:56:30;12.80;;;7.57;;
31336;SDS011;22846;42.654;23.314;2023-04-23T12:58:55;12.00;;;7.00;;
31336;SDS011;22846;42.654;23.314;2023-04-23T13:01:21;15.10;;;7.45;;
31336;SDS011;22846;42.654;23.314;2023-04-23T13:03:46;13.25;;;7.43;;
31336;SDS011;22846;42.654;23.314;2023-04-23T13:06:12;12.32;;;7.13;;
31336;SDS011;22846;42.654;23.314;2023-04-23T13:08:37;13.55;;;7.40;;
31336;SDS011;22846;42.654;23.314;2023-04-23T13:11:03;13.15;;;7.35;;
31336;SDS011;22846;42.654;23.314;2023-04-23T13:13:29;12.23;;;7.20;;
31336;SDS011;22846;42.654;23.314;2023-04-23T13:15:54;9.18;;;6.72;;
31336;SDS011;22846;42.654;23.314;2023-04-23T13:18:20;11.18;;;7.05;;
31336;SDS011;22846;42.654;23.314;2023-04-23T13:20:46;13.05;;;7.65;;
31336;SDS011;22846;42.654;23.314;2023-04-23T13:23:12;11.38;;;6.80;;
31336;SDS011;22846;42.654;23.314;2023-04-23T13:25:38;14.13;;;6.47;;
31336;SDS011;22846;42.654;23.314;2023-04-23T13:28:03;13.23;;;6.72;;
31336;SDS011;22846;42.654;23.314;2023-04-23T13:30:29;10.52;;;6.88;;
31336;SDS011;22846;42.654;23.314;2023-04-23T13:32:54;11.30;;;6.80;;
31336;SDS011;22846;42.654;23.314;2023-04-23T13:35:22;11.43;;;6.22;;
31336;SDS011;22846;42.654;23.314;2023-04-23T13:37:47;9.10;;;6.15;;
31336;SDS011;22846;42.654;23.314;2023-04-23T13:40:13;13.63;;;6.72;;
31336;SDS011;22846;42.654;23.314;2023-04-23T13:42:38;12.80;;;6.70;;
31336;SDS011;22846;42.654;23.314;2023-04-23T13:45:04;10.18;;;6.43;;
31336;SDS011;22846;42.654;23.314;2023-04-23T13:47:30;10.82;;;6.28;;
31336;SDS011;22846;42.654;23.314;2023-04-23T13:49:57;7.00;;;5.80;;
31336;SDS011;22846;42.654;23.314;2023-04-23T13:52:23;9.10;;;5.82;;
31336;SDS011;22846;42.654;23.314;2023-04-23T13:54:48;10.07;;;5.88;;
31336;SDS011;22846;42.654;23.314;2023-04-23T13:57:14;9.38;;;5.60;;
31336;SDS011;22846;42.654;23.314;2023-04-23T13:59:40;8.85;;;5.32;;
31336;SDS011;22846;42.654;23.314;2023-04-23T14:02:05;11.25;;;5.72;;
31336;SDS011;22846;42.654;23.314;2023-04-23T14:04:31;7.60;;;5.63;;
31336;SDS011;22846;42.654;23.314;2023-04-23T14:06:56;9.38;;;6.22;;
31336;SDS011;22846;42.654;23.314;2023-04-23T14:09:21;10.40;;;5.35;;
31336;SDS011;22846;42.654;23.314;2023-04-23T14:11:47;10.02;;;5.70;;
31336;SDS011;22846;42.654;23.314;2023-04-23T14:14:12;8.63;;;5.80;;
31336;SDS011;22846;42.654;23.314;2023-04-23T14:16:38;9.25;;;5.88;;
31336;SDS011;22846;42.654;23.314;2023-04-23T14:19:03;7.13;;;5.18;;
31336;SDS011;22846;42.654;23.314;2023-04-23T14:21:29;6.57;;;5.10;;
31336;SDS011;22846;42.654;23.314;2023-04-23T14:23:55;7.80;;;5.57;;
31336;SDS011;22846;42.654;23.314;2023-04-23T14:26:26;7.47;;;5.07;;
31336;SDS011;22846;42.654;23.314;2023-04-23T14:28:58;9.45;;;5.47;;
31336;SDS011;22846;42.654;23.314;2023-04-23T14:31:27;7.05;;;5.35;;
31336;SDS011;22846;42.654;23.314;2023-04-23T14:33:54;7.32;;;5.00;;
31336;SDS011;22846;42.654;23.314;2023-04-23T14:36:22;8.88;;;5.47;;
31336;SDS011;22846;42.654;23.314;2023-04-23T14:38:48;7.50;;;5.07;;
31336;SDS011;22846;42.654;23.314;2023-04-23T14:41:13;6.50;;;5.05;;
31336;SDS011;22846;42.654;23.314;2023-04-23T14:43:39;8.68;;;5.30;;
31336;SDS011;22846;42.654;23.314;2023-04-23T14:46:04;6.45;;;4.82;;